sensor_id;sensor_type;location;lat;lon;timestamp;temperature;humidity
11597;DHT22;5854;48.072;16.286;2023-03-16T00:00:24;5.30;52.60
11597;DHT22;5854;48.072;16.286;2023-03-16T00:03:41;5.30;53.10
11597;DHT22;5854;48.072;16.286;2023-03-16T00:06:53;5.30;53.30
11597;DHT22;5854;48.072;16.286;2023-03-16T00:09:51;5.40;51.60
11597;DHT22;5854;48.072;16.286;2023-03-16T00:12:57;5.20;52.50
11597;DHT22;5854;48.072;16.286;2023-03-16T00:15:51;5.20;54.60
11597;DHT22;5854;48.072;16.286;2023-03-16T00:18:56;5.40;52.50
11597;DHT22;5854;48.072;16.286;2023-03-16T00:21:55;5.00;52.80
11597;DHT22;5854;48.072;16.286;2023-03-16T00:24:55;5.00;52.00
11597;DHT22;5854;48.072;16.286;2023-03-16T00:28:08;4.80;54.30
11597;DHT22;5854;48.072;16.286;2023-03-16T00:31:20;4.80;55.40
11597;DHT22;5854;48.072;16.286;2023-03-16T00:34:15;4.80;55.30
11597;DHT22;5854;48.072;16.286;2023-03-16T00:37:15;4.90;55.40
11597;DHT22;5854;48.072;16.286;2023-03-16T00:40:13;4.70;53.80
11597;DHT22;5854;48.072;16.286;2023-03-16T00:43:41;5.00;53.50
11597;DHT22;5854;48.072;16.286;2023-03-16T00:46:42;4.80;53.60
11597;DHT22;5854;48.072;16.286;2023-03-16T00:49:44;4.80;52.90
11597;DHT22;5854;48.072;16.286;2023-03-16T00:52:40;4.90;55.20
11597;DHT22;5854;48.072;16.286;2023-03-16T00:55:43;4.90;53.30
11597;DHT22;5854;48.072;16.286;2023-03-16T00:58:42;4.90;53.00
11597;DHT22;5854;48.072;16.286;2023-03-16T01:01:43;4.70;55.70
11597;DHT22;5854;48.072;16.286;2023-03-16T01:04:40;4.50;54.40
11597;DHT22;5854;48.072;16.286;2023-03-16T01:07:40;4.60;55.00
11597;DHT22;5854;48.072;16.286;2023-03-16T01:10:42;4.70;54.70
11597;DHT22;5854;48.072;16.286;2023-03-16T01:13:46;4.30;53.80
11597;DHT22;5854;48.072;16.286;2023-03-16T01:16:49;4.20;56.90
11597;DHT22;5854;48.072;16.286;2023-03-16T01:19:46;4.60;54.30
11597;DHT22;5854;48.072;16.286;2023-03-16T01:22:44;4.60;55.10
11597;DHT22;5854;48.072;16.286;2023-03-16T01:25:49;4.30;55.40
11597;DHT22;5854;48.072;16.286;2023-03-16T01:28:58;4.70;53.30
11597;DHT22;5854;48.072;16.286;2023-03-16T01:32:13;4.70;54.40
11597;DHT22;5854;48.072;16.286;2023-03-16T01:35:22;4.60;53.60
11597;DHT22;5854;48.072;16.286;2023-03-16T01:38:35;4.40;52.90
11597;DHT22;5854;48.072;16.286;2023-03-16T01:41:40;4.20;55.50
11597;DHT22;5854;48.072;16.286;2023-03-16T01:44:58;4.20;54.40
11597;DHT22;5854;48.072;16.286;2023-03-16T01:47:53;4.10;54.90
11597;DHT22;5854;48.072;16.286;2023-03-16T01:50:51;4.30;55.50
11597;DHT22;5854;48.072;16.286;2023-03-16T01:53:44;4.50;53.30
11597;DHT22;5854;48.072;16.286;2023-03-16T01:56:51;4.40;53.50
11597;DHT22;5854;48.072;16.286;2023-03-16T01:59:46;4.40;54.40
11597;DHT22;5854;48.072;16.286;2023-03-16T02:03:04;4.50;54.30
11597;DHT22;5854;48.072;16.286;2023-03-16T02:06:24;4.60;55.10
11597;DHT22;5854;48.072;16.286;2023-03-16T02:09:25;4.70;54.60
11597;DHT22;5854;48.072;16.286;2023-03-16T02:12:34;4.50;54.10
11597;DHT22;5854;48.072;16.286;2023-03-16T02:15:35;4.70;54.60
11597;DHT22;5854;48.072;16.286;2023-03-16T02:18:52;5.00;52.90
11597;DHT22;5854;48.072;16.286;2023-03-16T02:22:02;4.80;52.90
11597;DHT22;5854;48.072;16.286;2023-03-16T02:25:08;5.00;52.80
11597;DHT22;5854;48.072;16.286;2023-03-16T02:28:13;4.80;51.90
11597;DHT22;5854;48.072;16.286;2023-03-16T02:31:25;5.00;52.60
11597;DHT22;5854;48.072;16.286;2023-03-16T02:34:24;4.60;53.50
11597;DHT22;5854;48.072;16.286;2023-03-16T02:37:25;4.50;53.10
11597;DHT22;5854;48.072;16.286;2023-03-16T02:40:33;4.50;53.10
11597;DHT22;5854;48.072;16.286;2023-03-16T02:43:29;4.60;54.00
11597;DHT22;5854;48.072;16.286;2023-03-16T02:46:31;4.30;54.60
11597;DHT22;5854;48.072;16.286;2023-03-16T02:49:48;4.40;54.20
11597;DHT22;5854;48.072;16.286;2023-03-16T02:53:05;4.30;54.80
11597;DHT22;5854;48.072;16.286;2023-03-16T02:56:12;4.20;55.80
11597;DHT22;5854;48.072;16.286;2023-03-16T02:59:05;4.20;53.20
11597;DHT22;5854;48.072;16.286;2023-03-16T03:02:05;4.40;54.90
11597;DHT22;5854;48.072;16.286;2023-03-16T03:05:01;4.50;53.40
11597;DHT22;5854;48.072;16.286;2023-03-16T03:08:04;4.40;54.50
11597;DHT22;5854;48.072;16.286;2023-03-16T03:10:53;4.30;53.00
11597;DHT22;5854;48.072;16.286;2023-03-16T03:14:07;4.30;54.80
11597;DHT22;5854;48.072;16.286;2023-03-16T03:17:16;4.00;54.30
11597;DHT22;5854;48.072;16.286;2023-03-16T03:20:14;4.20;54.80
11597;DHT22;5854;48.072;16.286;2023-03-16T03:23:21;4.10;53.50
11597;DHT22;5854;48.072;16.286;2023-03-16T03:26:16;3.90;54.20
11597;DHT22;5854;48.072;16.286;2023-03-16T03:29:18;3.90;55.20
11597;DHT22;5854;48.072;16.286;2023-03-16T03:32:19;4.00;53.90
11597;DHT22;5854;48.072;16.286;2023-03-16T03:35:21;4.00;54.50
11597;DHT22;5854;48.072;16.286;2023-03-16T03:38:29;3.90;55.00
11597;DHT22;5854;48.072;16.286;2023-03-16T03:41:35;3.80;56.20
11597;DHT22;5854;48.072;16.286;2023-03-16T03:44:47;3.50;57.10
11597;DHT22;5854;48.072;16.286;2023-03-16T03:47:36;3.30;56.00
11597;DHT22;5854;48.072;16.286;2023-03-16T03:50:40;3.50;57.40
11597;DHT22;5854;48.072;16.286;2023-03-16T03:53:30;3.30;57.50
11597;DHT22;5854;48.072;16.286;2023-03-16T03:56:22;3.20;55.80
11597;DHT22;5854;48.072;16.286;2023-03-16T03:59:19;3.30;57.30
11597;DHT22;5854;48.072;16.286;2023-03-16T04:02:12;3.40;56.40
11597;DHT22;5854;48.072;16.286;2023-03-16T04:05:19;3.50;57.20
11597;DHT22;5854;48.072;16.286;2023-03-16T04:08:21;3.50;55.00
11597;DHT22;5854;48.072;16.286;2023-03-16T04:10:55;3.00;56.20
11597;DHT22;5854;48.072;16.286;2023-03-16T04:13:30;3.30;58.50
11597;DHT22;5854;48.072;16.286;2023-03-16T04:16:03;3.40;56.20
11597;DHT22;5854;48.072;16.286;2023-03-16T04:18:39;3.50;55.80
11597;DHT22;5854;48.072;16.286;2023-03-16T04:21:14;3.50;57.40
11597;DHT22;5854;48.072;16.286;2023-03-16T04:24:07;3.40;57.30
11597;DHT22;5854;48.072;16.286;2023-03-16T04:26:49;3.40;56.30
11597;DHT22;5854;48.072;16.286;2023-03-16T04:30:06;3.40;56.90
11597;DHT22;5854;48.072;16.286;2023-03-16T04:32:50;3.40;56.40
11597;DHT22;5854;48.072;16.286;2023-03-16T04:35:27;3.60;57.40
11597;DHT22;5854;48.072;16.286;2023-03-16T04:38:01;3.70;56.20
11597;DHT22;5854;48.072;16.286;2023-03-16T04:40:33;3.50;56.60
11597;DHT22;5854;48.072;16.286;2023-03-16T04:43:04;3.60;53.90
11597;DHT22;5854;48.072;16.286;2023-03-16T04:45:36;3.30;55.30
11597;DHT22;5854;48.072;16.286;2023-03-16T04:48:10;3.60;56.50
11597;DHT22;5854;48.072;16.286;2023-03-16T04:50:40;3.50;55.70
11597;DHT22;5854;48.072;16.286;2023-03-16T04:53:20;3.60;56.10
11597;DHT22;5854;48.072;16.286;2023-03-16T04:55:49;3.30;55.00
11597;DHT22;5854;48.072;16.286;2023-03-16T04:58:31;3.50;57.00
11597;DHT22;5854;48.072;16.286;2023-03-16T05:01:06;3.80;54.60
11597;DHT22;5854;48.072;16.286;2023-03-16T05:04:05;3.90;54.70
11597;DHT22;5854;48.072;16.286;2023-03-16T05:06:50;3.70;55.10
11597;DHT22;5854;48.072;16.286;2023-03-16T05:09:20;3.50;54.90
11597;DHT22;5854;48.072;16.286;2023-03-16T05:11:52;3.60;56.00
11597;DHT22;5854;48.072;16.286;2023-03-16T05:14:28;3.60;55.50
11597;DHT22;5854;48.072;16.286;2023-03-16T05:17:02;3.80;54.50
11597;DHT22;5854;48.072;16.286;2023-03-16T05:19:42;3.80;53.80
11597;DHT22;5854;48.072;16.286;2023-03-16T05:22:39;3.50;54.70
11597;DHT22;5854;48.072;16.286;2023-03-16T05:25:42;3.60;54.40
11597;DHT22;5854;48.072;16.286;2023-03-16T05:28:54;3.70;54.80
11597;DHT22;5854;48.072;16.286;2023-03-16T05:31:52;3.90;54.50
11597;DHT22;5854;48.072;16.286;2023-03-16T05:34:37;4.00;53.40
11597;DHT22;5854;48.072;16.286;2023-03-16T05:37:14;3.90;53.40
11597;DHT22;5854;48.072;16.286;2023-03-16T05:39:50;3.90;53.50
11597;DHT22;5854;48.072;16.286;2023-03-16T05:43:03;4.20;53.00
11597;DHT22;5854;48.072;16.286;2023-03-16T05:45:45;4.10;51.80
11597;DHT22;5854;48.072;16.286;2023-03-16T05:48:34;4.20;52.90
11597;DHT22;5854;48.072;16.286;2023-03-16T05:51:32;3.90;51.90
11597;DHT22;5854;48.072;16.286;2023-03-16T05:54:17;3.80;52.80
11597;DHT22;5854;48.072;16.286;2023-03-16T05:59:51;3.90;52.50
11597;DHT22;5854;48.072;16.286;2023-03-16T06:02:46;4.00;53.40
11597;DHT22;5854;48.072;16.286;2023-03-16T06:05:23;4.00;52.10
11597;DHT22;5854;48.072;16.286;2023-03-16T06:08:07;4.10;53.10
11597;DHT22;5854;48.072;16.286;2023-03-16T06:10:48;4.00;52.90
11597;DHT22;5854;48.072;16.286;2023-03-16T06:14:02;4.20;52.80
11597;DHT22;5854;48.072;16.286;2023-03-16T06:17:09;4.50;51.60
11597;DHT22;5854;48.072;16.286;2023-03-16T06:20:01;4.60;51.30
11597;DHT22;5854;48.072;16.286;2023-03-16T06:22:48;4.50;50.00
11597;DHT22;5854;48.072;16.286;2023-03-16T06:25:56;4.50;51.30
11597;DHT22;5854;48.072;16.286;2023-03-16T06:28:24;4.50;49.70
11597;DHT22;5854;48.072;16.286;2023-03-16T06:30:52;4.20;51.50
11597;DHT22;5854;48.072;16.286;2023-03-16T06:33:21;4.40;51.40
11597;DHT22;5854;48.072;16.286;2023-03-16T06:35:48;4.70;53.80
11597;DHT22;5854;48.072;16.286;2023-03-16T06:38:16;5.00;50.60
11597;DHT22;5854;48.072;16.286;2023-03-16T06:40:43;5.60;49.20
11597;DHT22;5854;48.072;16.286;2023-03-16T06:43:10;5.80;46.40
11597;DHT22;5854;48.072;16.286;2023-03-16T06:45:37;5.90;46.30
11597;DHT22;5854;48.072;16.286;2023-03-16T06:48:05;6.30;45.40
11597;DHT22;5854;48.072;16.286;2023-03-16T06:50:35;6.30;44.20
11597;DHT22;5854;48.072;16.286;2023-03-16T06:53:02;6.50;44.40
11597;DHT22;5854;48.072;16.286;2023-03-16T06:55:29;7.00;43.60
11597;DHT22;5854;48.072;16.286;2023-03-16T06:57:56;7.10;43.20
11597;DHT22;5854;48.072;16.286;2023-03-16T07:00:24;7.40;41.50
11597;DHT22;5854;48.072;16.286;2023-03-16T07:02:51;7.40;41.20
11597;DHT22;5854;48.072;16.286;2023-03-16T07:05:18;7.80;41.10
11597;DHT22;5854;48.072;16.286;2023-03-16T07:07:47;8.40;40.00
11597;DHT22;5854;48.072;16.286;2023-03-16T07:10:16;8.40;39.00
11597;DHT22;5854;48.072;16.286;2023-03-16T07:12:44;8.10;39.30
11597;DHT22;5854;48.072;16.286;2023-03-16T07:15:11;7.50;40.70
11597;DHT22;5854;48.072;16.286;2023-03-16T07:17:39;6.90;41.80
11597;DHT22;5854;48.072;16.286;2023-03-16T07:20:08;6.70;42.10
11597;DHT22;5854;48.072;16.286;2023-03-16T07:22:37;6.40;43.80
11597;DHT22;5854;48.072;16.286;2023-03-16T07:25:09;6.20;43.80
11597;DHT22;5854;48.072;16.286;2023-03-16T07:27:36;6.40;44.20
11597;DHT22;5854;48.072;16.286;2023-03-16T07:30:06;6.30;43.30
11597;DHT22;5854;48.072;16.286;2023-03-16T07:32:36;6.30;44.00
11597;DHT22;5854;48.072;16.286;2023-03-16T07:35:04;6.50;43.80
11597;DHT22;5854;48.072;16.286;2023-03-16T07:37:32;6.70;43.00
11597;DHT22;5854;48.072;16.286;2023-03-16T07:40:00;7.60;41.20
11597;DHT22;5854;48.072;16.286;2023-03-16T07:42:29;8.10;40.20
11597;DHT22;5854;48.072;16.286;2023-03-16T07:44:56;8.60;39.20
11597;DHT22;5854;48.072;16.286;2023-03-16T07:47:23;8.70;36.80
11597;DHT22;5854;48.072;16.286;2023-03-16T07:49:50;8.80;37.20
11597;DHT22;5854;48.072;16.286;2023-03-16T07:52:17;7.50;37.70
11597;DHT22;5854;48.072;16.286;2023-03-16T07:54:45;7.10;40.80
11597;DHT22;5854;48.072;16.286;2023-03-16T07:57:13;7.00;41.30
11597;DHT22;5854;48.072;16.286;2023-03-16T07:59:42;6.70;42.00
11597;DHT22;5854;48.072;16.286;2023-03-16T08:02:11;6.50;42.90
11597;DHT22;5854;48.072;16.286;2023-03-16T08:04:39;6.20;42.30
11597;DHT22;5854;48.072;16.286;2023-03-16T08:07:07;6.20;43.30
11597;DHT22;5854;48.072;16.286;2023-03-16T08:09:35;6.30;42.80
11597;DHT22;5854;48.072;16.286;2023-03-16T08:12:02;6.40;43.20
11597;DHT22;5854;48.072;16.286;2023-03-16T08:14:29;6.30;42.70
11597;DHT22;5854;48.072;16.286;2023-03-16T08:17:00;6.10;44.60
11597;DHT22;5854;48.072;16.286;2023-03-16T08:19:27;6.20;42.90
11597;DHT22;5854;48.072;16.286;2023-03-16T08:21:55;6.30;41.60
11597;DHT22;5854;48.072;16.286;2023-03-16T08:24:25;6.30;41.20
11597;DHT22;5854;48.072;16.286;2023-03-16T08:26:54;6.60;41.10
11597;DHT22;5854;48.072;16.286;2023-03-16T08:29:22;6.50;39.80
11597;DHT22;5854;48.072;16.286;2023-03-16T08:31:49;6.50;41.40
11597;DHT22;5854;48.072;16.286;2023-03-16T08:34:18;6.70;41.30
11597;DHT22;5854;48.072;16.286;2023-03-16T08:36:45;6.80;39.70
11597;DHT22;5854;48.072;16.286;2023-03-16T08:39:12;6.60;38.90
11597;DHT22;5854;48.072;16.286;2023-03-16T08:41:40;6.20;41.20
11597;DHT22;5854;48.072;16.286;2023-03-16T08:44:07;6.20;41.60
11597;DHT22;5854;48.072;16.286;2023-03-16T08:46:35;6.30;39.10
11597;DHT22;5854;48.072;16.286;2023-03-16T08:49:02;6.30;42.60
11597;DHT22;5854;48.072;16.286;2023-03-16T08:51:30;6.50;39.00
11597;DHT22;5854;48.072;16.286;2023-03-16T08:53:57;6.60;38.80
11597;DHT22;5854;48.072;16.286;2023-03-16T08:56:25;6.50;40.80
11597;DHT22;5854;48.072;16.286;2023-03-16T08:58:53;6.70;38.10
11597;DHT22;5854;48.072;16.286;2023-03-16T09:01:20;6.80;41.90
11597;DHT22;5854;48.072;16.286;2023-03-16T09:03:48;7.00;37.00
11597;DHT22;5854;48.072;16.286;2023-03-16T09:06:16;7.10;40.60
11597;DHT22;5854;48.072;16.286;2023-03-16T09:08:44;7.00;40.40
11597;DHT22;5854;48.072;16.286;2023-03-16T09:11:14;6.90;39.70
11597;DHT22;5854;48.072;16.286;2023-03-16T09:13:42;7.00;37.80
11597;DHT22;5854;48.072;16.286;2023-03-16T09:16:10;6.80;39.60
11597;DHT22;5854;48.072;16.286;2023-03-16T09:18:38;6.80;38.80
11597;DHT22;5854;48.072;16.286;2023-03-16T09:21:08;6.80;40.50
11597;DHT22;5854;48.072;16.286;2023-03-16T09:23:38;6.80;41.10
11597;DHT22;5854;48.072;16.286;2023-03-16T09:26:08;6.90;42.00
11597;DHT22;5854;48.072;16.286;2023-03-16T09:28:38;6.90;38.30
11597;DHT22;5854;48.072;16.286;2023-03-16T09:31:06;6.90;40.90
11597;DHT22;5854;48.072;16.286;2023-03-16T09:33:35;6.80;41.80
11597;DHT22;5854;48.072;16.286;2023-03-16T09:36:02;6.80;40.40
11597;DHT22;5854;48.072;16.286;2023-03-16T09:38:30;6.80;40.20
11597;DHT22;5854;48.072;16.286;2023-03-16T09:40:59;7.00;40.60
11597;DHT22;5854;48.072;16.286;2023-03-16T09:43:45;7.10;41.20
11597;DHT22;5854;48.072;16.286;2023-03-16T09:46:24;7.10;36.60
11597;DHT22;5854;48.072;16.286;2023-03-16T09:48:54;7.00;39.90
11597;DHT22;5854;48.072;16.286;2023-03-16T09:51:34;7.00;40.10
11597;DHT22;5854;48.072;16.286;2023-03-16T09:54:07;7.00;40.00
11597;DHT22;5854;48.072;16.286;2023-03-16T09:56:42;6.90;40.70
11597;DHT22;5854;48.072;16.286;2023-03-16T09:59:13;6.90;40.40
11597;DHT22;5854;48.072;16.286;2023-03-16T10:01:49;7.00;40.10
11597;DHT22;5854;48.072;16.286;2023-03-16T10:04:33;7.00;36.80
11597;DHT22;5854;48.072;16.286;2023-03-16T10:07:18;7.00;37.30
11597;DHT22;5854;48.072;16.286;2023-03-16T10:09:55;7.00;37.80
11597;DHT22;5854;48.072;16.286;2023-03-16T10:12:28;7.30;36.10
11597;DHT22;5854;48.072;16.286;2023-03-16T10:15:03;7.40;36.10
11597;DHT22;5854;48.072;16.286;2023-03-16T10:17:37;7.30;36.00
11597;DHT22;5854;48.072;16.286;2023-03-16T10:20:10;7.30;35.30
11597;DHT22;5854;48.072;16.286;2023-03-16T10:22:43;7.60;33.80
11597;DHT22;5854;48.072;16.286;2023-03-16T10:25:17;7.60;38.70
11597;DHT22;5854;48.072;16.286;2023-03-16T10:27:46;7.30;32.60
11597;DHT22;5854;48.072;16.286;2023-03-16T10:30:20;7.30;37.30
11597;DHT22;5854;48.072;16.286;2023-03-16T10:32:50;7.40;37.10
11597;DHT22;5854;48.072;16.286;2023-03-16T10:35:28;7.50;36.70
11597;DHT22;5854;48.072;16.286;2023-03-16T10:38:00;7.60;37.80
11597;DHT22;5854;48.072;16.286;2023-03-16T10:40:30;7.60;38.00
11597;DHT22;5854;48.072;16.286;2023-03-16T10:43:05;7.50;39.80
11597;DHT22;5854;48.072;16.286;2023-03-16T10:45:35;7.50;32.10
11597;DHT22;5854;48.072;16.286;2023-03-16T10:48:07;7.50;37.10
11597;DHT22;5854;48.072;16.286;2023-03-16T10:50:34;7.40;37.00
11597;DHT22;5854;48.072;16.286;2023-03-16T10:53:02;7.40;38.70
11597;DHT22;5854;48.072;16.286;2023-03-16T10:55:31;7.30;38.40
11597;DHT22;5854;48.072;16.286;2023-03-16T10:58:07;7.40;38.70
11597;DHT22;5854;48.072;16.286;2023-03-16T11:00:40;7.30;32.50
11597;DHT22;5854;48.072;16.286;2023-03-16T11:03:20;7.40;33.80
11597;DHT22;5854;48.072;16.286;2023-03-16T11:05:56;7.50;37.40
11597;DHT22;5854;48.072;16.286;2023-03-16T11:08:26;7.50;34.20
11597;DHT22;5854;48.072;16.286;2023-03-16T11:10:55;7.50;38.60
11597;DHT22;5854;48.072;16.286;2023-03-16T11:13:30;7.50;32.90
11597;DHT22;5854;48.072;16.286;2023-03-16T11:16:04;7.50;33.70
11597;DHT22;5854;48.072;16.286;2023-03-16T11:18:43;7.50;37.20
11597;DHT22;5854;48.072;16.286;2023-03-16T11:21:14;7.60;39.90
11597;DHT22;5854;48.072;16.286;2023-03-16T11:23:47;7.40;34.70
11597;DHT22;5854;48.072;16.286;2023-03-16T11:26:20;7.50;39.80
11597;DHT22;5854;48.072;16.286;2023-03-16T11:28:52;7.50;38.40
11597;DHT22;5854;48.072;16.286;2023-03-16T11:31:36;7.60;34.80
11597;DHT22;5854;48.072;16.286;2023-03-16T11:34:13;7.50;32.90
11597;DHT22;5854;48.072;16.286;2023-03-16T11:36:47;7.70;36.60
11597;DHT22;5854;48.072;16.286;2023-03-16T11:39:29;7.70;34.20
11597;DHT22;5854;48.072;16.286;2023-03-16T11:42:09;7.70;38.90
11597;DHT22;5854;48.072;16.286;2023-03-16T11:44:45;7.60;36.00
11597;DHT22;5854;48.072;16.286;2023-03-16T11:50:23;7.90;32.90
11597;DHT22;5854;48.072;16.286;2023-03-16T11:52:58;7.80;36.50
11597;DHT22;5854;48.072;16.286;2023-03-16T11:55:35;7.80;32.50
11597;DHT22;5854;48.072;16.286;2023-03-16T11:58:25;7.80;34.70
11597;DHT22;5854;48.072;16.286;2023-03-16T12:01:04;7.70;39.10
11597;DHT22;5854;48.072;16.286;2023-03-16T12:03:46;7.60;32.80
11597;DHT22;5854;48.072;16.286;2023-03-16T12:06:27;7.70;35.60
11597;DHT22;5854;48.072;16.286;2023-03-16T12:12:13;7.80;30.30
11597;DHT22;5854;48.072;16.286;2023-03-16T12:14:51;7.80;41.10
11597;DHT22;5854;48.072;16.286;2023-03-16T12:17:26;7.80;35.10
11597;DHT22;5854;48.072;16.286;2023-03-16T12:20:00;7.80;35.40
11597;DHT22;5854;48.072;16.286;2023-03-16T12:22:33;7.90;36.50
11597;DHT22;5854;48.072;16.286;2023-03-16T12:25:13;7.80;35.50
11597;DHT22;5854;48.072;16.286;2023-03-16T12:27:47;7.80;33.70
11597;DHT22;5854;48.072;16.286;2023-03-16T12:30:25;7.90;38.50
11597;DHT22;5854;48.072;16.286;2023-03-16T12:33:03;7.90;32.10
11597;DHT22;5854;48.072;16.286;2023-03-16T12:35:41;8.00;37.30
11597;DHT22;5854;48.072;16.286;2023-03-16T12:38:21;8.10;34.30
11597;DHT22;5854;48.072;16.286;2023-03-16T12:41:00;8.10;38.20
11597;DHT22;5854;48.072;16.286;2023-03-16T12:43:47;8.20;33.80
11597;DHT22;5854;48.072;16.286;2023-03-16T12:46:26;8.30;34.00
11597;DHT22;5854;48.072;16.286;2023-03-16T12:48:59;8.20;31.50
11597;DHT22;5854;48.072;16.286;2023-03-16T12:51:36;8.10;33.20
11597;DHT22;5854;48.072;16.286;2023-03-16T12:54:05;8.20;36.10
11597;DHT22;5854;48.072;16.286;2023-03-16T12:56:34;8.20;36.50
11597;DHT22;5854;48.072;16.286;2023-03-16T12:59:04;8.30;31.50
11597;DHT22;5854;48.072;16.286;2023-03-16T13:01:39;8.40;38.50
11597;DHT22;5854;48.072;16.286;2023-03-16T13:04:10;8.50;34.00
11597;DHT22;5854;48.072;16.286;2023-03-16T13:06:44;8.40;35.10
11597;DHT22;5854;48.072;16.286;2023-03-16T13:09:18;8.50;36.20
11597;DHT22;5854;48.072;16.286;2023-03-16T13:11:49;8.50;31.70
11597;DHT22;5854;48.072;16.286;2023-03-16T13:14:35;8.40;28.50
11597;DHT22;5854;48.072;16.286;2023-03-16T13:17:21;8.50;26.50
11597;DHT22;5854;48.072;16.286;2023-03-16T13:20:04;8.50;34.40
11597;DHT22;5854;48.072;16.286;2023-03-16T13:23:07;8.50;35.30
11597;DHT22;5854;48.072;16.286;2023-03-16T13:25:45;8.60;37.30
11597;DHT22;5854;48.072;16.286;2023-03-16T13:28:27;8.50;34.20
11597;DHT22;5854;48.072;16.286;2023-03-16T13:30:56;8.50;38.20
11597;DHT22;5854;48.072;16.286;2023-03-16T13:33:25;8.60;31.40
11597;DHT22;5854;48.072;16.286;2023-03-16T13:35:54;8.60;31.50
11597;DHT22;5854;48.072;16.286;2023-03-16T13:38:25;8.70;31.40
11597;DHT22;5854;48.072;16.286;2023-03-16T13:40:56;8.60;33.10
11597;DHT22;5854;48.072;16.286;2023-03-16T13:43:25;8.70;31.50
11597;DHT22;5854;48.072;16.286;2023-03-16T13:45:55;8.70;35.60
11597;DHT22;5854;48.072;16.286;2023-03-16T13:48:22;8.70;34.00
11597;DHT22;5854;48.072;16.286;2023-03-16T13:50:51;8.80;33.90
11597;DHT22;5854;48.072;16.286;2023-03-16T13:53:21;8.80;36.10
11597;DHT22;5854;48.072;16.286;2023-03-16T13:55:51;8.80;33.30
11597;DHT22;5854;48.072;16.286;2023-03-16T13:58:22;8.80;34.60
11597;DHT22;5854;48.072;16.286;2023-03-16T14:00:54;8.80;32.30
11597;DHT22;5854;48.072;16.286;2023-03-16T14:03:28;8.80;28.00
11597;DHT22;5854;48.072;16.286;2023-03-16T14:05:57;8.80;35.20
11597;DHT22;5854;48.072;16.286;2023-03-16T14:08:28;8.70;34.20
11597;DHT22;5854;48.072;16.286;2023-03-16T14:10:56;8.80;33.80
11597;DHT22;5854;48.072;16.286;2023-03-16T14:13:30;8.80;35.70
11597;DHT22;5854;48.072;16.286;2023-03-16T14:16:02;8.70;32.10
11597;DHT22;5854;48.072;16.286;2023-03-16T14:18:35;8.70;33.00
11597;DHT22;5854;48.072;16.286;2023-03-16T14:21:07;8.70;30.30
11597;DHT22;5854;48.072;16.286;2023-03-16T14:23:39;8.70;34.50
11597;DHT22;5854;48.072;16.286;2023-03-16T14:26:11;8.70;31.30
11597;DHT22;5854;48.072;16.286;2023-03-16T14:28:40;8.70;33.90
11597;DHT22;5854;48.072;16.286;2023-03-16T14:31:10;8.80;31.20
11597;DHT22;5854;48.072;16.286;2023-03-16T14:33:40;8.90;35.90
11597;DHT22;5854;48.072;16.286;2023-03-16T14:36:12;9.00;29.60
11597;DHT22;5854;48.072;16.286;2023-03-16T14:38:44;9.30;38.90
11597;DHT22;5854;48.072;16.286;2023-03-16T14:41:20;9.70;31.50
11597;DHT22;5854;48.072;16.286;2023-03-16T14:43:50;9.70;23.60
11597;DHT22;5854;48.072;16.286;2023-03-16T14:46:25;9.30;26.00
11597;DHT22;5854;48.072;16.286;2023-03-16T14:49:00;9.00;31.10
11597;DHT22;5854;48.072;16.286;2023-03-16T14:51:29;8.90;36.30
11597;DHT22;5854;48.072;16.286;2023-03-16T14:53:58;8.80;30.70
11597;DHT22;5854;48.072;16.286;2023-03-16T14:56:32;8.80;32.70
11597;DHT22;5854;48.072;16.286;2023-03-16T14:58:59;8.80;35.20
11597;DHT22;5854;48.072;16.286;2023-03-16T15:01:26;8.70;37.80
11597;DHT22;5854;48.072;16.286;2023-03-16T15:03:54;8.70;31.60
11597;DHT22;5854;48.072;16.286;2023-03-16T15:06:21;8.60;33.20
11597;DHT22;5854;48.072;16.286;2023-03-16T15:08:48;8.60;28.30
11597;DHT22;5854;48.072;16.286;2023-03-16T15:11:17;8.60;29.50
11597;DHT22;5854;48.072;16.286;2023-03-16T15:13:46;8.60;32.10
11597;DHT22;5854;48.072;16.286;2023-03-16T15:16:29;8.70;33.70
11597;DHT22;5854;48.072;16.286;2023-03-16T15:18:57;8.70;33.30
11597;DHT22;5854;48.072;16.286;2023-03-16T15:21:26;8.60;36.90
11597;DHT22;5854;48.072;16.286;2023-03-16T15:23:57;8.60;35.30
11597;DHT22;5854;48.072;16.286;2023-03-16T15:26:26;8.60;35.40
11597;DHT22;5854;48.072;16.286;2023-03-16T15:28:55;8.60;34.70
11597;DHT22;5854;48.072;16.286;2023-03-16T15:31:23;8.60;36.90
11597;DHT22;5854;48.072;16.286;2023-03-16T15:33:51;8.60;36.30
11597;DHT22;5854;48.072;16.286;2023-03-16T15:36:19;8.60;35.00
11597;DHT22;5854;48.072;16.286;2023-03-16T15:38:50;8.60;34.10
11597;DHT22;5854;48.072;16.286;2023-03-16T15:41:18;8.60;35.00
11597;DHT22;5854;48.072;16.286;2023-03-16T15:43:47;8.60;35.90
11597;DHT22;5854;48.072;16.286;2023-03-16T15:46:16;8.50;35.20
11597;DHT22;5854;48.072;16.286;2023-03-16T15:48:43;8.50;32.20
11597;DHT22;5854;48.072;16.286;2023-03-16T15:51:18;8.40;28.60
11597;DHT22;5854;48.072;16.286;2023-03-16T15:53:48;8.40;33.00
11597;DHT22;5854;48.072;16.286;2023-03-16T15:56:21;8.50;37.00
11597;DHT22;5854;48.072;16.286;2023-03-16T15:58:57;8.50;36.20
11597;DHT22;5854;48.072;16.286;2023-03-16T16:01:27;8.50;34.40
11597;DHT22;5854;48.072;16.286;2023-03-16T16:03:56;8.40;31.60
11597;DHT22;5854;48.072;16.286;2023-03-16T16:06:24;8.40;35.60
11597;DHT22;5854;48.072;16.286;2023-03-16T16:08:52;8.40;37.90
11597;DHT22;5854;48.072;16.286;2023-03-16T16:11:23;8.40;41.70
11597;DHT22;5854;48.072;16.286;2023-03-16T16:13:52;8.60;28.20
11597;DHT22;5854;48.072;16.286;2023-03-16T16:16:22;8.60;34.10
11597;DHT22;5854;48.072;16.286;2023-03-16T16:18:49;8.60;36.60
11597;DHT22;5854;48.072;16.286;2023-03-16T16:21:18;8.80;36.60
11597;DHT22;5854;48.072;16.286;2023-03-16T16:23:46;8.70;36.60
11597;DHT22;5854;48.072;16.286;2023-03-16T16:26:24;8.50;34.70
11597;DHT22;5854;48.072;16.286;2023-03-16T16:28:55;8.40;38.30
11597;DHT22;5854;48.072;16.286;2023-03-16T16:31:24;8.40;34.20
11597;DHT22;5854;48.072;16.286;2023-03-16T16:33:54;8.30;38.00
11597;DHT22;5854;48.072;16.286;2023-03-16T16:36:21;8.30;39.80
11597;DHT22;5854;48.072;16.286;2023-03-16T16:38:49;8.20;30.10
11597;DHT22;5854;48.072;16.286;2023-03-16T16:41:24;8.30;34.60
11597;DHT22;5854;48.072;16.286;2023-03-16T16:43:54;8.30;35.70
11597;DHT22;5854;48.072;16.286;2023-03-16T16:46:24;8.30;40.90
11597;DHT22;5854;48.072;16.286;2023-03-16T16:48:53;8.20;40.00
11597;DHT22;5854;48.072;16.286;2023-03-16T16:51:25;8.20;41.20
11597;DHT22;5854;48.072;16.286;2023-03-16T16:53:56;8.20;39.90
11597;DHT22;5854;48.072;16.286;2023-03-16T16:56:25;8.20;42.70
11597;DHT22;5854;48.072;16.286;2023-03-16T16:58:57;8.30;43.10
11597;DHT22;5854;48.072;16.286;2023-03-16T17:01:27;8.20;37.70
11597;DHT22;5854;48.072;16.286;2023-03-16T17:03:55;8.10;37.30
11597;DHT22;5854;48.072;16.286;2023-03-16T17:06:22;8.00;42.90
11597;DHT22;5854;48.072;16.286;2023-03-16T17:08:49;8.10;42.50
11597;DHT22;5854;48.072;16.286;2023-03-16T17:11:22;8.10;41.60
11597;DHT22;5854;48.072;16.286;2023-03-16T17:13:51;8.00;44.20